Airport View

Enter AWOS ICAO identifier for current METAR.

ex. KFNL

KUCY 251855Z AUTO 23010KT 10SM SCT037 SCT046 SCT070 29/21 A2997 RMK A01

25 Sep 2018 19:08

Frequency: 135.325

Phone: 731-885-9161

Other Area AWOS: KPHT - KM25 - KDYR - KHZD

TAF KPAH 251720Z 2518/2618 21008KT P6SM VCSH SCT025 BKN050 TEMPO 2518/2522 BKN025 FM260000 20007KT P6SM BKN035 FM260400 23005KT P6SM VCSH BKN025 FM260900 32009KT 3SM BR VCSH BKN015 FM261200 35012G18KT 1SM -SHRA BR OVC006 FM261500 01013G21KT 3SM BR SCT006 BKN015 FM261700 01014G22KT P6SM SCT015 BKN035